sensor_id;sensor_type;location;lat;lon;timestamp;P1;durP1;ratioP1;P2;durP2;ratioP2
18214;SDS011;9233;51.312;6.512;2022-11-21T00:01:24;10.07;;;5.47;;
18214;SDS011;9233;51.312;6.512;2022-11-21T00:04:13;9.17;;;6.13;;
18214;SDS011;9233;51.312;6.512;2022-11-21T00:07:00;11.97;;;6.40;;
18214;SDS011;9233;51.312;6.512;2022-11-21T00:09:46;15.50;;;6.30;;
18214;SDS011;9233;51.312;6.512;2022-11-21T00:12:33;12.53;;;6.23;;
18214;SDS011;9233;51.312;6.512;2022-11-21T00:15:19;12.27;;;7.13;;
18214;SDS011;9233;51.312;6.512;2022-11-21T00:18:06;12.30;;;6.50;;
18214;SDS011;9233;51.312;6.512;2022-11-21T00:20:54;12.03;;;6.37;;
18214;SDS011;9233;51.312;6.512;2022-11-21T00:23:40;13.03;;;6.73;;
18214;SDS011;9233;51.312;6.512;2022-11-21T00:26:27;11.93;;;6.63;;
18214;SDS011;9233;51.312;6.512;2022-11-21T00:29:14;14.47;;;6.97;;
18214;SDS011;9233;51.312;6.512;2022-11-21T00:32:00;16.03;;;7.73;;
18214;SDS011;9233;51.312;6.512;2022-11-21T00:34:47;12.90;;;7.27;;
18214;SDS011;9233;51.312;6.512;2022-11-21T00:37:35;16.87;;;7.03;;
18214;SDS011;9233;51.312;6.512;2022-11-21T00:40:21;12.53;;;6.63;;
18214;SDS011;9233;51.312;6.512;2022-11-21T00:43:08;12.50;;;6.87;;
18214;SDS011;9233;51.312;6.512;2022-11-21T00:45:55;14.27;;;6.73;;
18214;SDS011;9233;51.312;6.512;2022-11-21T00:48:42;13.30;;;7.07;;
18214;SDS011;9233;51.312;6.512;2022-11-21T00:51:29;18.57;;;8.80;;
18214;SDS011;9233;51.312;6.512;2022-11-21T00:54:17;16.17;;;7.70;;
18214;SDS011;9233;51.312;6.512;2022-11-21T00:57:03;18.23;;;8.23;;
18214;SDS011;9233;51.312;6.512;2022-11-21T00:59:50;15.30;;;8.13;;
18214;SDS011;9233;51.312;6.512;2022-11-21T01:02:36;18.03;;;8.13;;
18214;SDS011;9233;51.312;6.512;2022-11-21T01:05:23;19.20;;;7.87;;
18214;SDS011;9233;51.312;6.512;2022-11-21T01:08:09;15.73;;;8.50;;
18214;SDS011;9233;51.312;6.512;2022-11-21T01:10:59;19.43;;;8.53;;
18214;SDS011;9233;51.312;6.512;2022-11-21T01:13:47;16.63;;;8.80;;
18214;SDS011;9233;51.312;6.512;2022-11-21T01:16:34;19.03;;;9.40;;
18214;SDS011;9233;51.312;6.512;2022-11-21T01:19:21;19.20;;;8.17;;
18214;SDS011;9233;51.312;6.512;2022-11-21T01:22:07;19.40;;;9.57;;
18214;SDS011;9233;51.312;6.512;2022-11-21T01:24:54;19.53;;;8.37;;
18214;SDS011;9233;51.312;6.512;2022-11-21T01:27:42;17.57;;;8.90;;
18214;SDS011;9233;51.312;6.512;2022-11-21T01:30:28;17.83;;;8.43;;
18214;SDS011;9233;51.312;6.512;2022-11-21T01:33:15;18.70;;;8.53;;
18214;SDS011;9233;51.312;6.512;2022-11-21T01:36:05;19.20;;;8.90;;
18214;SDS011;9233;51.312;6.512;2022-11-21T01:38:53;16.73;;;8.83;;
18214;SDS011;9233;51.312;6.512;2022-11-21T01:41:41;22.10;;;9.47;;
18214;SDS011;9233;51.312;6.512;2022-11-21T01:47:22;20.47;;;9.83;;
18214;SDS011;9233;51.312;6.512;2022-11-21T01:50:09;17.20;;;8.63;;
18214;SDS011;9233;51.312;6.512;2022-11-21T01:52:55;18.07;;;8.90;;
18214;SDS011;9233;51.312;6.512;2022-11-21T01:55:42;17.13;;;8.13;;
18214;SDS011;9233;51.312;6.512;2022-11-21T01:58:28;17.40;;;8.37;;
18214;SDS011;9233;51.312;6.512;2022-11-21T02:01:17;16.90;;;8.77;;
18214;SDS011;9233;51.312;6.512;2022-11-21T02:04:05;19.33;;;9.20;;
18214;SDS011;9233;51.312;6.512;2022-11-21T02:06:52;18.87;;;8.50;;
18214;SDS011;9233;51.312;6.512;2022-11-21T02:09:39;17.87;;;8.87;;
18214;SDS011;9233;51.312;6.512;2022-11-21T02:12:28;22.80;;;8.77;;
18214;SDS011;9233;51.312;6.512;2022-11-21T02:15:16;16.27;;;8.07;;
18214;SDS011;9233;51.312;6.512;2022-11-21T02:18:04;16.17;;;8.23;;
18214;SDS011;9233;51.312;6.512;2022-11-21T02:20:54;21.77;;;9.33;;
18214;SDS011;9233;51.312;6.512;2022-11-21T02:23:47;17.40;;;8.30;;
18214;SDS011;9233;51.312;6.512;2022-11-21T02:26:38;19.40;;;8.90;;
18214;SDS011;9233;51.312;6.512;2022-11-21T02:29:25;18.53;;;8.63;;
18214;SDS011;9233;51.312;6.512;2022-11-21T02:32:19;16.87;;;8.27;;
18214;SDS011;9233;51.312;6.512;2022-11-21T02:35:07;22.87;;;9.23;;
18214;SDS011;9233;51.312;6.512;2022-11-21T02:37:55;21.13;;;9.80;;
18214;SDS011;9233;51.312;6.512;2022-11-21T02:40:47;17.47;;;8.80;;
18214;SDS011;9233;51.312;6.512;2022-11-21T02:43:38;23.23;;;9.27;;
18214;SDS011;9233;51.312;6.512;2022-11-21T02:46:28;15.50;;;8.23;;
18214;SDS011;9233;51.312;6.512;2022-11-21T02:49:15;17.30;;;9.63;;
18214;SDS011;9233;51.312;6.512;2022-11-21T02:52:06;22.00;;;8.60;;
18214;SDS011;9233;51.312;6.512;2022-11-21T02:54:53;15.30;;;8.33;;
18214;SDS011;9233;51.312;6.512;2022-11-21T02:57:40;17.77;;;9.30;;
18214;SDS011;9233;51.312;6.512;2022-11-21T03:00:28;20.20;;;8.67;;
18214;SDS011;9233;51.312;6.512;2022-11-21T03:03:14;19.17;;;8.67;;
18214;SDS011;9233;51.312;6.512;2022-11-21T03:06:01;17.57;;;8.87;;
18214;SDS011;9233;51.312;6.512;2022-11-21T03:08:47;18.90;;;8.20;;
18214;SDS011;9233;51.312;6.512;2022-11-21T03:11:34;15.77;;;7.93;;
18214;SDS011;9233;51.312;6.512;2022-11-21T03:14:20;17.20;;;8.87;;
18214;SDS011;9233;51.312;6.512;2022-11-21T03:17:08;19.97;;;9.50;;
18214;SDS011;9233;51.312;6.512;2022-11-21T03:19:55;20.80;;;10.27;;
18214;SDS011;9233;51.312;6.512;2022-11-21T03:22:42;18.17;;;9.50;;
18214;SDS011;9233;51.312;6.512;2022-11-21T03:25:28;18.90;;;8.97;;
18214;SDS011;9233;51.312;6.512;2022-11-21T03:28:15;19.70;;;8.97;;
18214;SDS011;9233;51.312;6.512;2022-11-21T03:31:02;20.53;;;9.63;;
18214;SDS011;9233;51.312;6.512;2022-11-21T03:33:49;21.23;;;9.03;;
18214;SDS011;9233;51.312;6.512;2022-11-21T03:36:36;20.43;;;10.10;;
18214;SDS011;9233;51.312;6.512;2022-11-21T03:39:23;17.50;;;9.47;;
18214;SDS011;9233;51.312;6.512;2022-11-21T03:42:09;17.77;;;8.83;;
18214;SDS011;9233;51.312;6.512;2022-11-21T03:44:56;21.40;;;10.23;;
18214;SDS011;9233;51.312;6.512;2022-11-21T03:47:42;18.03;;;9.23;;
18214;SDS011;9233;51.312;6.512;2022-11-21T03:50:30;22.83;;;9.33;;
18214;SDS011;9233;51.312;6.512;2022-11-21T03:53:17;20.80;;;9.90;;
18214;SDS011;9233;51.312;6.512;2022-11-21T03:56:03;20.70;;;9.67;;
18214;SDS011;9233;51.312;6.512;2022-11-21T03:58:50;19.10;;;9.07;;
18214;SDS011;9233;51.312;6.512;2022-11-21T04:01:37;20.33;;;9.23;;
18214;SDS011;9233;51.312;6.512;2022-11-21T04:04:23;17.13;;;9.37;;
18214;SDS011;9233;51.312;6.512;2022-11-21T04:07:11;21.33;;;9.90;;
18214;SDS011;9233;51.312;6.512;2022-11-21T04:09:58;20.03;;;10.10;;
18214;SDS011;9233;51.312;6.512;2022-11-21T04:12:44;21.70;;;9.67;;
18214;SDS011;9233;51.312;6.512;2022-11-21T04:15:31;18.07;;;9.60;;
18214;SDS011;9233;51.312;6.512;2022-11-21T04:18:17;20.23;;;9.17;;
18214;SDS011;9233;51.312;6.512;2022-11-21T04:21:04;22.73;;;9.83;;
18214;SDS011;9233;51.312;6.512;2022-11-21T04:23:53;15.17;;;8.53;;
18214;SDS011;9233;51.312;6.512;2022-11-21T04:26:40;22.90;;;10.23;;
18214;SDS011;9233;51.312;6.512;2022-11-21T04:29:26;20.10;;;9.60;;
18214;SDS011;9233;51.312;6.512;2022-11-21T04:32:13;18.87;;;8.47;;
18214;SDS011;9233;51.312;6.512;2022-11-21T04:34:59;21.27;;;10.07;;
18214;SDS011;9233;51.312;6.512;2022-11-21T04:37:46;20.23;;;9.67;;
18214;SDS011;9233;51.312;6.512;2022-11-21T04:40:34;19.70;;;9.50;;
18214;SDS011;9233;51.312;6.512;2022-11-21T04:43:21;21.27;;;10.00;;
18214;SDS011;9233;51.312;6.512;2022-11-21T04:46:08;17.93;;;9.00;;
18214;SDS011;9233;51.312;6.512;2022-11-21T04:48:54;20.37;;;9.27;;
18214;SDS011;9233;51.312;6.512;2022-11-21T04:51:41;21.40;;;9.60;;
18214;SDS011;9233;51.312;6.512;2022-11-21T04:54:27;18.47;;;8.70;;
18214;SDS011;9233;51.312;6.512;2022-11-21T04:57:15;18.50;;;9.13;;
18214;SDS011;9233;51.312;6.512;2022-11-21T05:00:02;19.10;;;9.10;;
18214;SDS011;9233;51.312;6.512;2022-11-21T05:02:50;19.83;;;9.47;;
18214;SDS011;9233;51.312;6.512;2022-11-21T05:05:36;18.83;;;9.27;;
18214;SDS011;9233;51.312;6.512;2022-11-21T05:08:23;19.40;;;9.60;;
18214;SDS011;9233;51.312;6.512;2022-11-21T05:11:09;20.03;;;9.47;;
18214;SDS011;9233;51.312;6.512;2022-11-21T05:14:15;16.33;;;8.47;;
18214;SDS011;9233;51.312;6.512;2022-11-21T05:17:01;21.37;;;9.53;;
18214;SDS011;9233;51.312;6.512;2022-11-21T05:19:48;20.77;;;9.77;;
18214;SDS011;9233;51.312;6.512;2022-11-21T05:22:34;21.43;;;10.13;;
18214;SDS011;9233;51.312;6.512;2022-11-21T05:25:21;20.73;;;9.70;;
18214;SDS011;9233;51.312;6.512;2022-11-21T05:28:07;19.77;;;9.67;;
18214;SDS011;9233;51.312;6.512;2022-11-21T05:30:55;23.90;;;10.20;;
18214;SDS011;9233;51.312;6.512;2022-11-21T05:33:42;21.63;;;10.13;;
18214;SDS011;9233;51.312;6.512;2022-11-21T05:36:28;22.63;;;10.03;;
18214;SDS011;9233;51.312;6.512;2022-11-21T05:39:15;23.30;;;9.67;;
18214;SDS011;9233;51.312;6.512;2022-11-21T05:42:01;23.37;;;10.30;;
18214;SDS011;9233;51.312;6.512;2022-11-21T05:44:48;23.50;;;9.53;;
18214;SDS011;9233;51.312;6.512;2022-11-21T05:47:35;20.37;;;10.20;;
18214;SDS011;9233;51.312;6.512;2022-11-21T05:50:21;20.63;;;9.47;;
18214;SDS011;9233;51.312;6.512;2022-11-21T05:53:08;22.97;;;10.27;;
18214;SDS011;9233;51.312;6.512;2022-11-21T05:55:54;22.93;;;10.27;;
18214;SDS011;9233;51.312;6.512;2022-11-21T05:58:41;25.03;;;10.37;;
18214;SDS011;9233;51.312;6.512;2022-11-21T06:01:28;22.27;;;10.47;;
18214;SDS011;9233;51.312;6.512;2022-11-21T06:04:35;24.43;;;9.33;;
18214;SDS011;9233;51.312;6.512;2022-11-21T06:07:22;21.17;;;10.07;;
18214;SDS011;9233;51.312;6.512;2022-11-21T06:10:09;24.23;;;9.53;;
18214;SDS011;9233;51.312;6.512;2022-11-21T06:12:59;20.10;;;9.20;;
18214;SDS011;9233;51.312;6.512;2022-11-21T06:15:49;30.73;;;14.47;;
18214;SDS011;9233;51.312;6.512;2022-11-21T06:18:38;37.63;;;16.50;;
18214;SDS011;9233;51.312;6.512;2022-11-21T06:21:27;32.20;;;14.30;;
18214;SDS011;9233;51.312;6.512;2022-11-21T06:24:14;28.40;;;12.30;;
18214;SDS011;9233;51.312;6.512;2022-11-21T06:27:01;23.60;;;10.47;;
18214;SDS011;9233;51.312;6.512;2022-11-21T06:29:47;25.70;;;10.57;;
18214;SDS011;9233;51.312;6.512;2022-11-21T06:32:35;22.97;;;9.60;;
18214;SDS011;9233;51.312;6.512;2022-11-21T06:35:22;26.57;;;11.73;;
18214;SDS011;9233;51.312;6.512;2022-11-21T06:38:09;30.37;;;11.37;;
18214;SDS011;9233;51.312;6.512;2022-11-21T06:40:57;23.90;;;9.83;;
18214;SDS011;9233;51.312;6.512;2022-11-21T06:43:44;23.73;;;9.73;;
18214;SDS011;9233;51.312;6.512;2022-11-21T06:46:31;24.83;;;9.93;;
18214;SDS011;9233;51.312;6.512;2022-11-21T06:49:17;22.27;;;9.43;;
18214;SDS011;9233;51.312;6.512;2022-11-21T06:52:06;21.30;;;9.73;;
18214;SDS011;9233;51.312;6.512;2022-11-21T06:54:54;31.87;;;12.23;;
18214;SDS011;9233;51.312;6.512;2022-11-21T06:57:40;27.83;;;10.93;;
18214;SDS011;9233;51.312;6.512;2022-11-21T07:00:27;19.67;;;9.63;;
18214;SDS011;9233;51.312;6.512;2022-11-21T07:03:14;24.10;;;10.40;;
18214;SDS011;9233;51.312;6.512;2022-11-21T07:06:01;30.60;;;9.50;;
18214;SDS011;9233;51.312;6.512;2022-11-21T07:08:50;24.13;;;10.47;;
18214;SDS011;9233;51.312;6.512;2022-11-21T07:11:38;22.70;;;9.57;;
18214;SDS011;9233;51.312;6.512;2022-11-21T07:14:25;26.13;;;10.63;;
18214;SDS011;9233;51.312;6.512;2022-11-21T07:17:11;24.87;;;10.50;;
18214;SDS011;9233;51.312;6.512;2022-11-21T07:19:57;23.40;;;9.90;;
18214;SDS011;9233;51.312;6.512;2022-11-21T07:22:44;23.37;;;10.37;;
18214;SDS011;9233;51.312;6.512;2022-11-21T07:25:31;25.50;;;10.07;;
18214;SDS011;9233;51.312;6.512;2022-11-21T07:28:18;27.37;;;9.40;;
18214;SDS011;9233;51.312;6.512;2022-11-21T07:31:05;28.17;;;11.00;;
18214;SDS011;9233;51.312;6.512;2022-11-21T07:33:52;22.93;;;10.50;;
18214;SDS011;9233;51.312;6.512;2022-11-21T07:36:38;26.90;;;10.67;;
18214;SDS011;9233;51.312;6.512;2022-11-21T07:39:25;26.90;;;10.97;;
18214;SDS011;9233;51.312;6.512;2022-11-21T07:42:11;25.73;;;10.10;;
18214;SDS011;9233;51.312;6.512;2022-11-21T07:45:01;23.77;;;9.60;;
18214;SDS011;9233;51.312;6.512;2022-11-21T07:47:48;27.27;;;9.67;;
18214;SDS011;9233;51.312;6.512;2022-11-21T07:50:42;20.90;;;9.67;;
18214;SDS011;9233;51.312;6.512;2022-11-21T07:53:29;21.50;;;9.77;;
18214;SDS011;9233;51.312;6.512;2022-11-21T07:56:15;20.67;;;8.87;;
18214;SDS011;9233;51.312;6.512;2022-11-21T07:59:02;19.60;;;9.27;;
18214;SDS011;9233;51.312;6.512;2022-11-21T08:01:50;22.50;;;8.43;;
18214;SDS011;9233;51.312;6.512;2022-11-21T08:04:37;20.37;;;9.00;;
18214;SDS011;9233;51.312;6.512;2022-11-21T08:07:23;17.20;;;8.10;;
18214;SDS011;9233;51.312;6.512;2022-11-21T08:10:10;18.43;;;8.20;;
18214;SDS011;9233;51.312;6.512;2022-11-21T08:12:57;16.67;;;6.63;;
18214;SDS011;9233;51.312;6.512;2022-11-21T08:15:43;14.87;;;6.17;;
18214;SDS011;9233;51.312;6.512;2022-11-21T08:18:31;11.37;;;5.20;;
18214;SDS011;9233;51.312;6.512;2022-11-21T08:21:18;10.83;;;5.10;;
18214;SDS011;9233;51.312;6.512;2022-11-21T08:24:05;7.40;;;4.83;;
18214;SDS011;9233;51.312;6.512;2022-11-21T08:26:57;10.90;;;4.03;;
18214;SDS011;9233;51.312;6.512;2022-11-21T08:29:44;7.80;;;3.60;;
18214;SDS011;9233;51.312;6.512;2022-11-21T08:32:31;11.33;;;3.77;;
18214;SDS011;9233;51.312;6.512;2022-11-21T08:35:19;6.20;;;3.70;;
18214;SDS011;9233;51.312;6.512;2022-11-21T08:38:06;4.93;;;3.03;;
18214;SDS011;9233;51.312;6.512;2022-11-21T08:40:52;5.10;;;2.97;;
18214;SDS011;9233;51.312;6.512;2022-11-21T08:43:53;4.43;;;3.30;;
18214;SDS011;9233;51.312;6.512;2022-11-21T08:46:39;6.70;;;3.00;;
18214;SDS011;9233;51.312;6.512;2022-11-21T08:49:26;3.53;;;2.90;;
18214;SDS011;9233;51.312;6.512;2022-11-21T08:52:14;5.20;;;2.87;;
18214;SDS011;9233;51.312;6.512;2022-11-21T08:55:01;5.40;;;2.77;;
18214;SDS011;9233;51.312;6.512;2022-11-21T08:57:48;6.03;;;3.07;;
18214;SDS011;9233;51.312;6.512;2022-11-21T09:00:34;4.60;;;3.00;;
18214;SDS011;9233;51.312;6.512;2022-11-21T09:03:21;7.70;;;3.17;;
18214;SDS011;9233;51.312;6.512;2022-11-21T09:06:08;4.50;;;3.20;;
18214;SDS011;9233;51.312;6.512;2022-11-21T09:08:56;4.57;;;3.33;;
18214;SDS011;9233;51.312;6.512;2022-11-21T09:11:42;5.47;;;2.90;;
18214;SDS011;9233;51.312;6.512;2022-11-21T09:14:29;6.27;;;3.37;;
18214;SDS011;9233;51.312;6.512;2022-11-21T09:17:33;4.43;;;3.53;;
18214;SDS011;9233;51.312;6.512;2022-11-21T09:20:37;4.97;;;3.03;;
18214;SDS011;9233;51.312;6.512;2022-11-21T09:23:25;5.50;;;3.10;;
18214;SDS011;9233;51.312;6.512;2022-11-21T09:26:13;5.03;;;3.13;;
18214;SDS011;9233;51.312;6.512;2022-11-21T09:28:59;5.87;;;3.40;;
18214;SDS011;9233;51.312;6.512;2022-11-21T09:31:47;6.50;;;3.30;;
18214;SDS011;9233;51.312;6.512;2022-11-21T09:34:34;9.10;;;4.00;;
18214;SDS011;9233;51.312;6.512;2022-11-21T09:37:20;9.63;;;3.73;;
18214;SDS011;9233;51.312;6.512;2022-11-21T09:40:08;5.97;;;3.13;;
18214;SDS011;9233;51.312;6.512;2022-11-21T09:43:02;5.80;;;3.37;;
18214;SDS011;9233;51.312;6.512;2022-11-21T09:46:08;7.30;;;3.23;;
18214;SDS011;9233;51.312;6.512;2022-11-21T09:48:56;5.13;;;3.30;;
18214;SDS011;9233;51.312;6.512;2022-11-21T09:51:45;5.23;;;3.23;;
18214;SDS011;9233;51.312;6.512;2022-11-21T09:54:31;7.67;;;3.33;;
18214;SDS011;9233;51.312;6.512;2022-11-21T09:57:21;7.10;;;2.90;;
18214;SDS011;9233;51.312;6.512;2022-11-21T10:00:13;5.77;;;3.17;;
18214;SDS011;9233;51.312;6.512;2022-11-21T10:03:01;8.17;;;3.03;;
18214;SDS011;9233;51.312;6.512;2022-11-21T10:05:49;5.63;;;3.13;;
18214;SDS011;9233;51.312;6.512;2022-11-21T10:08:40;7.80;;;3.50;;
18214;SDS011;9233;51.312;6.512;2022-11-21T10:11:32;5.87;;;3.23;;
18214;SDS011;9233;51.312;6.512;2022-11-21T10:14:49;5.07;;;2.77;;
18214;SDS011;9233;51.312;6.512;2022-11-21T10:17:46;8.83;;;3.07;;
18214;SDS011;9233;51.312;6.512;2022-11-21T10:20:44;7.43;;;2.93;;
18214;SDS011;9233;51.312;6.512;2022-11-21T10:23:41;5.70;;;2.53;;
18214;SDS011;9233;51.312;6.512;2022-11-21T10:26:35;5.40;;;2.97;;
18214;SDS011;9233;51.312;6.512;2022-11-21T10:29:28;5.73;;;2.93;;
18214;SDS011;9233;51.312;6.512;2022-11-21T10:32:19;7.47;;;2.60;;
18214;SDS011;9233;51.312;6.512;2022-11-21T10:35:13;12.10;;;3.07;;
18214;SDS011;9233;51.312;6.512;2022-11-21T10:38:02;8.27;;;2.70;;
18214;SDS011;9233;51.312;6.512;2022-11-21T10:41:05;5.77;;;2.50;;
18214;SDS011;9233;51.312;6.512;2022-11-21T10:43:58;8.10;;;2.63;;
18214;SDS011;9233;51.312;6.512;2022-11-21T10:47:11;6.93;;;2.73;;
18214;SDS011;9233;51.312;6.512;2022-11-21T10:50:01;3.97;;;2.03;;
18214;SDS011;9233;51.312;6.512;2022-11-21T10:52:56;6.53;;;2.33;;
18214;SDS011;9233;51.312;6.512;2022-11-21T10:56:10;5.40;;;2.50;;
18214;SDS011;9233;51.312;6.512;2022-11-21T10:58:58;6.53;;;2.47;;
18214;SDS011;9233;51.312;6.512;2022-11-21T11:01:46;5.63;;;2.10;;
18214;SDS011;9233;51.312;6.512;2022-11-21T11:04:39;4.67;;;1.80;;
18214;SDS011;9233;51.312;6.512;2022-11-21T11:07:27;4.53;;;1.93;;
18214;SDS011;9233;51.312;6.512;2022-11-21T11:10:20;7.17;;;2.50;;
18214;SDS011;9233;51.312;6.512;2022-11-21T11:13:12;4.87;;;1.90;;
18214;SDS011;9233;51.312;6.512;2022-11-21T11:16:17;5.90;;;2.00;;
18214;SDS011;9233;51.312;6.512;2022-11-21T11:19:05;4.87;;;1.97;;
18214;SDS011;9233;51.312;6.512;2022-11-21T11:22:00;8.40;;;2.50;;
18214;SDS011;9233;51.312;6.512;2022-11-21T11:24:51;6.60;;;2.30;;
18214;SDS011;9233;51.312;6.512;2022-11-21T11:27:39;6.07;;;2.83;;
18214;SDS011;9233;51.312;6.512;2022-11-21T11:30:26;6.93;;;2.30;;
18214;SDS011;9233;51.312;6.512;2022-11-21T11:33:32;5.63;;;1.63;;
18214;SDS011;9233;51.312;6.512;2022-11-21T11:36:23;2.60;;;1.60;;
18214;SDS011;9233;51.312;6.512;2022-11-21T11:39:17;5.63;;;1.53;;
18214;SDS011;9233;51.312;6.512;2022-11-21T11:45:56;4.70;;;1.70;;
18214;SDS011;9233;51.312;6.512;2022-11-21T11:49:07;4.97;;;1.50;;
18214;SDS011;9233;51.312;6.512;2022-11-21T11:51:55;5.33;;;1.43;;
18214;SDS011;9233;51.312;6.512;2022-11-21T11:54:46;4.73;;;1.43;;
18214;SDS011;9233;51.312;6.512;2022-11-21T11:57:34;5.30;;;1.53;;
18214;SDS011;9233;51.312;6.512;2022-11-21T12:00:24;3.27;;;1.50;;
18214;SDS011;9233;51.312;6.512;2022-11-21T12:03:19;4.17;;;1.20;;
18214;SDS011;9233;51.312;6.512;2022-11-21T12:06:10;5.03;;;1.27;;
18214;SDS011;9233;51.312;6.512;2022-11-21T12:08:58;3.33;;;1.20;;
18214;SDS011;9233;51.312;6.512;2022-11-21T12:11:49;4.30;;;1.40;;
18214;SDS011;9233;51.312;6.512;2022-11-21T12:14:57;3.87;;;1.63;;
18214;SDS011;9233;51.312;6.512;2022-11-21T12:18:09;5.07;;;1.30;;
18214;SDS011;9233;51.312;6.512;2022-11-21T12:21:02;4.20;;;1.70;;
18214;SDS011;9233;51.312;6.512;2022-11-21T12:23:51;3.27;;;1.50;;
18214;SDS011;9233;51.312;6.512;2022-11-21T12:26:42;4.73;;;1.30;;
18214;SDS011;9233;51.312;6.512;2022-11-21T12:29:37;4.50;;;1.07;;
18214;SDS011;9233;51.312;6.512;2022-11-21T12:32:33;2.57;;;1.00;;
18214;SDS011;9233;51.312;6.512;2022-11-21T12:35:35;1.93;;;1.10;;
18214;SDS011;9233;51.312;6.512;2022-11-21T12:38:35;1.77;;;0.87;;
18214;SDS011;9233;51.312;6.512;2022-11-21T12:41:30;11.30;;;5.43;;
18214;SDS011;9233;51.312;6.512;2022-11-21T12:44:45;6.77;;;2.53;;
18214;SDS011;9233;51.312;6.512;2022-11-21T12:47:50;5.77;;;1.50;;
18214;SDS011;9233;51.312;6.512;2022-11-21T12:51:22;3.03;;;1.30;;
18214;SDS011;9233;51.312;6.512;2022-11-21T12:54:54;6.80;;;1.37;;
18214;SDS011;9233;51.312;6.512;2022-11-21T12:57:54;4.80;;;0.90;;
18214;SDS011;9233;51.312;6.512;2022-11-21T13:00:51;4.50;;;0.90;;
18214;SDS011;9233;51.312;6.512;2022-11-21T13:03:45;2.33;;;0.70;;
18214;SDS011;9233;51.312;6.512;2022-11-21T13:06:36;1.57;;;0.70;;
18214;SDS011;9233;51.312;6.512;2022-11-21T13:09:25;2.10;;;0.60;;
18214;SDS011;9233;51.312;6.512;2022-11-21T13:12:15;2.67;;;0.70;;
18214;SDS011;9233;51.312;6.512;2022-11-21T13:15:08;3.83;;;0.90;;
18214;SDS011;9233;51.312;6.512;2022-11-21T13:18:02;3.10;;;1.10;;
18214;SDS011;9233;51.312;6.512;2022-11-21T13:20:58;6.87;;;2.27;;
18214;SDS011;9233;51.312;6.512;2022-11-21T13:23:45;11.37;;;4.97;;
18214;SDS011;9233;51.312;6.512;2022-11-21T13:26:46;8.47;;;2.63;;
18214;SDS011;9233;51.312;6.512;2022-11-21T13:29:38;7.03;;;1.70;;
18214;SDS011;9233;51.312;6.512;2022-11-21T13:32:37;1.87;;;1.00;;
18214;SDS011;9233;51.312;6.512;2022-11-21T13:42:13;1.87;;;0.87;;
18214;SDS011;9233;51.312;6.512;2022-11-21T13:48:39;3.33;;;1.00;;
18214;SDS011;9233;51.312;6.512;2022-11-21T13:51:35;6.80;;;2.13;;
18214;SDS011;9233;51.312;6.512;2022-11-21T13:54:35;1.73;;;1.10;;
18214;SDS011;9233;51.312;6.512;2022-11-21T13:57:44;0.93;;;0.80;;
18214;SDS011;9233;51.312;6.512;2022-11-21T14:00:50;1.77;;;0.80;;
18214;SDS011;9233;51.312;6.512;2022-11-21T14:04:00;1.90;;;0.80;;
18214;SDS011;9233;51.312;6.512;2022-11-21T14:06:54;2.87;;;1.13;;
18214;SDS011;9233;51.312;6.512;2022-11-21T14:09:46;5.13;;;0.77;;
18214;SDS011;9233;51.312;6.512;2022-11-21T14:12:33;4.07;;;0.87;;
18214;SDS011;9233;51.312;6.512;2022-11-21T14:15:22;4.70;;;0.70;;
18214;SDS011;9233;51.312;6.512;2022-11-21T14:18:13;0.80;;;0.60;;
18214;SDS011;9233;51.312;6.512;2022-11-21T14:21:05;2.47;;;0.70;;
18214;SDS011;9233;51.312;6.512;2022-11-21T14:23:53;3.83;;;0.70;;
18214;SDS011;9233;51.312;6.512;2022-11-21T14:26:42;3.20;;;1.00;;
18214;SDS011;9233;51.312;6.512;2022-11-21T14:29:36;3.53;;;1.00;;
18214;SDS011;9233;51.312;6.512;2022-11-21T14:32:24;4.90;;;1.23;;
18214;SDS011;9233;51.312;6.512;2022-11-21T14:35:18;2.30;;;0.70;;
18214;SDS011;9233;51.312;6.512;2022-11-21T14:38:06;2.63;;;1.00;;
18214;SDS011;9233;51.312;6.512;2022-11-21T14:44:13;1.63;;;1.13;;
18214;SDS011;9233;51.312;6.512;2022-11-21T14:47:04;2.93;;;1.40;;
18214;SDS011;9233;51.312;6.512;2022-11-21T14:49:54;1.90;;;0.67;;
18214;SDS011;9233;51.312;6.512;2022-11-21T14:52:43;3.07;;;0.70;;
18214;SDS011;9233;51.312;6.512;2022-11-21T14:55:29;0.90;;;0.70;;
18214;SDS011;9233;51.312;6.512;2022-11-21T14:58:17;3.77;;;1.00;;
18214;SDS011;9233;51.312;6.512;2022-11-21T15:01:05;2.30;;;0.67;;
18214;SDS011;9233;51.312;6.512;2022-11-21T15:03:53;3.53;;;0.70;;
18214;SDS011;9233;51.312;6.512;2022-11-21T15:06:41;0.63;;;0.43;;
18214;SDS011;9233;51.312;6.512;2022-11-21T15:09:29;1.40;;;0.60;;
18214;SDS011;9233;51.312;6.512;2022-11-21T15:12:19;3.90;;;0.83;;
18214;SDS011;9233;51.312;6.512;2022-11-21T15:15:11;5.33;;;2.20;;
18214;SDS011;9233;51.312;6.512;2022-11-21T15:18:10;2.97;;;1.17;;
18214;SDS011;9233;51.312;6.512;2022-11-21T15:21:00;1.17;;;0.70;;
18214;SDS011;9233;51.312;6.512;2022-11-21T15:23:48;1.80;;;0.70;;
18214;SDS011;9233;51.312;6.512;2022-11-21T15:26:36;1.57;;;1.13;;
18214;SDS011;9233;51.312;6.512;2022-11-21T15:29:30;2.27;;;0.87;;
18214;SDS011;9233;51.312;6.512;2022-11-21T15:32:17;0.77;;;0.50;;
18214;SDS011;9233;51.312;6.512;2022-11-21T15:38:24;1.43;;;0.83;;
18214;SDS011;9233;51.312;6.512;2022-11-21T15:41:26;2.07;;;0.83;;
18214;SDS011;9233;51.312;6.512;2022-11-21T15:44:19;1.60;;;0.60;;
18214;SDS011;9233;51.312;6.512;2022-11-21T15:47:07;1.27;;;0.70;;
18214;SDS011;9233;51.312;6.512;2022-11-21T15:49:53;1.27;;;0.63;;
18214;SDS011;9233;51.312;6.512;2022-11-21T15:52:42;1.83;;;0.90;;
18214;SDS011;9233;51.312;6.512;2022-11-21T15:55:29;1.43;;;0.77;;
18214;SDS011;9233;51.312;6.512;2022-11-21T15:58:16;4.13;;;2.57;;
18214;SDS011;9233;51.312;6.512;2022-11-21T16:01:04;6.20;;;1.80;;
18214;SDS011;9233;51.312;6.512;2022-11-21T16:03:51;2.00;;;1.10;;
18214;SDS011;9233;51.312;6.512;2022-11-21T16:06:39;2.20;;;0.90;;
18214;SDS011;9233;51.312;6.512;2022-11-21T16:09:25;4.23;;;1.53;;
18214;SDS011;9233;51.312;6.512;2022-11-21T16:12:13;3.70;;;1.30;;
18214;SDS011;9233;51.312;6.512;2022-11-21T16:15:00;3.77;;;1.50;;
18214;SDS011;9233;51.312;6.512;2022-11-21T16:17:47;2.17;;;1.37;;
18214;SDS011;9233;51.312;6.512;2022-11-21T16:20:34;2.87;;;1.20;;
18214;SDS011;9233;51.312;6.512;2022-11-21T16:23:21;3.70;;;1.07;;
18214;SDS011;9233;51.312;6.512;2022-11-21T16:26:07;3.47;;;1.10;;
18214;SDS011;9233;51.312;6.512;2022-11-21T16:28:55;1.83;;;1.10;;
18214;SDS011;9233;51.312;6.512;2022-11-21T16:31:41;1.40;;;0.87;;
18214;SDS011;9233;51.312;6.512;2022-11-21T16:34:29;5.03;;;1.33;;
18214;SDS011;9233;51.312;6.512;2022-11-21T16:37:16;4.73;;;1.50;;
18214;SDS011;9233;51.312;6.512;2022-11-21T16:40:03;4.83;;;1.33;;
18214;SDS011;9233;51.312;6.512;2022-11-21T16:42:51;2.33;;;1.20;;
18214;SDS011;9233;51.312;6.512;2022-11-21T16:45:40;3.40;;;1.00;;
18214;SDS011;9233;51.312;6.512;2022-11-21T16:48:26;2.60;;;1.27;;
18214;SDS011;9233;51.312;6.512;2022-11-21T16:51:15;2.50;;;1.30;;
18214;SDS011;9233;51.312;6.512;2022-11-21T16:54:02;0.97;;;0.80;;
18214;SDS011;9233;51.312;6.512;2022-11-21T16:56:49;1.53;;;0.70;;
18214;SDS011;9233;51.312;6.512;2022-11-21T16:59:35;3.43;;;1.00;;
18214;SDS011;9233;51.312;6.512;2022-11-21T17:02:22;3.03;;;0.87;;
18214;SDS011;9233;51.312;6.512;2022-11-21T17:05:09;2.40;;;1.03;;
18214;SDS011;9233;51.312;6.512;2022-11-21T17:07:57;3.27;;;0.90;;
18214;SDS011;9233;51.312;6.512;2022-11-21T17:10:43;2.37;;;0.97;;
18214;SDS011;9233;51.312;6.512;2022-11-21T17:13:30;5.43;;;1.33;;
18214;SDS011;9233;51.312;6.512;2022-11-21T17:16:17;3.77;;;1.50;;
18214;SDS011;9233;51.312;6.512;2022-11-21T17:19:05;5.47;;;2.30;;
18214;SDS011;9233;51.312;6.512;2022-11-21T17:21:51;6.40;;;1.73;;
18214;SDS011;9233;51.312;6.512;2022-11-21T17:24:39;4.97;;;2.13;;
18214;SDS011;9233;51.312;6.512;2022-11-21T17:27:26;4.83;;;1.70;;
18214;SDS011;9233;51.312;6.512;2022-11-21T17:30:12;2.43;;;1.30;;
18214;SDS011;9233;51.312;6.512;2022-11-21T17:33:00;5.77;;;1.10;;